Time;durP1;ratioP1;P1;durP2;ratioP2;P2;SDS_P1;SDS_P2;PMS_P1;PMS_P2;Temp;Humidity;BMP_temperature;BMP_pressure;BME280_temperature;BME280_humidity;BME280_pressure;Samples;Min_cycle;Max_cycle;Signal;HPM_P1;HPM_P2
2021/07/05 00:00:21;;;;;;;0.70;0.70;;;24.20;55.20;;;;;;5019893;28;20241;-47
2021/07/05 00:02:47;;;;;;;0.90;0.73;;;24.30;54.90;;;;;;5032432;28;20205;-46
2021/07/05 00:05:13;;;;;;;2.97;1.00;;;24.20;54.90;;;;;;5026886;28;20951;-48
2021/07/05 00:07:42;;;;;;;3.57;1.17;;;24.20;55.80;;;;;;5025594;28;20437;-48
2021/07/05 00:10:09;;;;;;;2.10;1.17;;;24.30;55.80;;;;;;5022908;28;20452;-47
2021/07/05 00:12:34;;;;;;;1.00;1.00;;;24.30;55.80;;;;;;5020829;28;20527;-45
2021/07/05 00:15:00;;;;;;;4.50;1.00;;;24.40;55.90;;;;;;5026581;28;20563;-49
2021/07/05 00:17:26;;;;;;;2.20;1.00;;;24.30;55.60;;;;;;5020282;28;20228;-47
2021/07/05 00:19:51;;;;;;;1.20;1.00;;;24.30;55.60;;;;;;5024105;28;20451;-46
2021/07/05 00:22:17;;;;;;;1.00;0.80;;;24.40;55.80;;;;;;5027195;28;20276;-49
2021/07/05 00:24:43;;;;;;;1.17;1.07;;;24.30;55.60;;;;;;5019658;28;20220;-45
2021/07/05 00:27:08;;;;;;;1.10;1.00;;;24.30;55.70;;;;;;5024918;28;20201;-49
2021/07/05 00:29:34;;;;;;;1.10;1.00;;;24.20;55.70;;;;;;5013218;28;20708;-47
2021/07/05 00:31:59;;;;;;;1.77;1.03;;;24.20;56.10;;;;;;5025286;28;20251;-46
2021/07/05 00:34:25;;;;;;;1.77;1.00;;;24.20;56.20;;;;;;5031285;28;20283;-45
2021/07/05 00:36:51;;;;;;;3.20;1.13;;;24.30;56.20;;;;;;5026918;28;20193;-45
2021/07/05 00:39:16;;;;;;;1.33;1.20;;;24.10;56.00;;;;;;5021216;28;20217;-44
2021/07/05 00:41:42;;;;;;;1.00;0.90;;;24.20;56.20;;;;;;5017803;28;20239;-45
2021/07/05 00:44:08;;;;;;;1.20;1.10;;;24.30;56.00;;;;;;5030484;28;20189;-44
2021/07/05 00:46:33;;;;;;;0.90;0.90;;;24.30;55.80;;;;;;5029573;28;20280;-45
2021/07/05 00:48:59;;;;;;;0.80;0.80;;;24.30;55.50;;;;;;5025555;28;20820;-45
2021/07/05 00:51:25;;;;;;;1.10;1.10;;;24.30;55.70;;;;;;5024269;28;20204;-46
2021/07/05 00:53:52;;;;;;;1.20;1.10;;;24.10;55.80;;;;;;5027823;28;20193;-45
2021/07/05 00:56:18;;;;;;;1.30;1.20;;;24.10;55.80;;;;;;5022743;28;20448;-44
2021/07/05 00:58:44;;;;;;;1.13;0.80;;;24.10;55.70;;;;;;5017094;28;20796;-46
2021/07/05 01:01:10;;;;;;;1.03;0.93;;;24.10;55.80;;;;;;5027524;28;20835;-46
2021/07/05 01:03:35;;;;;;;1.20;1.10;;;23.90;56.40;;;;;;5024187;28;20441;-49
2021/07/05 01:06:01;;;;;;;1.40;1.30;;;23.90;56.80;;;;;;5026725;28;20197;-49
2021/07/05 01:08:27;;;;;;;1.93;1.10;;;24.10;56.80;;;;;;5026443;28;20250;-45
2021/07/05 01:10:53;;;;;;;1.20;1.10;;;24.20;56.50;;;;;;5029561;28;20189;-49
2021/07/05 01:13:19;;;;;;;1.20;1.10;;;24.20;55.80;;;;;;5023601;28;20440;-44
2021/07/05 01:15:45;;;;;;;1.20;1.10;;;23.90;57.00;;;;;;5017643;28;20432;-48
2021/07/05 01:18:11;;;;;;;1.20;1.10;;;24.00;56.70;;;;;;5030611;28;20231;-47
2021/07/05 01:20:39;;;;;;;1.20;1.10;;;23.90;56.90;;;;;;5021848;28;20881;-48
2021/07/05 01:23:08;;;;;;;1.20;1.10;;;24.00;56.80;;;;;;5022758;28;20661;-45
2021/07/05 01:25:34;;;;;;;1.27;1.00;;;24.10;56.60;;;;;;5022038;28;20473;-47
2021/07/05 01:28:01;;;;;;;1.47;1.37;;;24.20;56.40;;;;;;5025522;28;21239;-48
2021/07/05 01:30:27;;;;;;;0.90;0.90;;;24.30;56.20;;;;;;5027752;28;20523;-48
2021/07/05 01:32:57;;;;;;;5.67;1.00;;;24.40;56.20;;;;;;5027072;28;21000;-47
2021/07/05 01:35:23;;;;;;;1.00;0.90;;;24.50;55.60;;;;;;5027051;28;20853;-49
2021/07/05 01:37:48;;;;;;;2.50;1.20;;;24.20;56.10;;;;;;5020941;28;20475;-46
2021/07/05 01:40:17;;;;;;;0.87;0.87;;;24.10;55.30;;;;;;5023906;28;20228;-45
2021/07/05 01:42:49;;;;;;;1.47;1.10;;;24.00;56.30;;;;;;5023489;28;20316;-49
2021/07/05 01:45:16;;;;;;;5.33;1.00;;;24.20;56.50;;;;;;5027163;28;20436;-45
2021/07/05 01:47:41;;;;;;;0.80;0.80;;;24.20;56.00;;;;;;5025065;28;20526;-49
2021/07/05 01:50:08;;;;;;;3.23;1.03;;;24.20;56.00;;;;;;5025002;28;20436;-49
2021/07/05 01:52:34;;;;;;;1.10;1.03;;;24.30;56.10;;;;;;5020747;28;20255;-47
2021/07/05 01:55:00;;;;;;;2.07;1.27;;;24.30;56.10;;;;;;5022781;28;20448;-49
2021/07/05 01:57:25;;;;;;;3.40;1.40;;;24.30;55.90;;;;;;5021808;28;20847;-50
2021/07/05 01:59:53;;;;;;;1.80;0.93;;;24.20;55.80;;;;;;5022839;28;20312;-49
2021/07/05 02:02:19;;;;;;;3.27;1.07;;;24.00;56.20;;;;;;5025902;28;20288;-46
2021/07/05 02:04:46;;;;;;;1.70;1.17;;;23.90;57.00;;;;;;5018783;28;20511;-47
2021/07/05 02:07:11;;;;;;;1.03;0.93;;;23.90;57.10;;;;;;5021844;28;20236;-49
2021/07/05 02:09:37;;;;;;;1.27;0.90;;;23.90;56.50;;;;;;5023311;28;20444;-48
2021/07/05 02:12:03;;;;;;;1.40;1.30;;;24.00;56.90;;;;;;5024035;28;20598;-48
2021/07/05 02:14:29;;;;;;;4.70;1.30;;;23.70;56.10;;;;;;5018826;28;21047;-46
2021/07/05 02:16:54;;;;;;;1.53;1.43;;;23.60;56.90;;;;;;5023683;28;20475;-47
2021/07/05 02:19:21;;;;;;;1.00;1.00;;;23.70;56.60;;;;;;5028130;28;20946;-47
2021/07/05 02:21:47;;;;;;;1.60;1.17;;;23.60;56.70;;;;;;5024994;28;20230;-49
2021/07/05 02:24:12;;;;;;;1.40;1.20;;;23.30;56.50;;;;;;5024993;28;20939;-46
2021/07/05 02:26:38;;;;;;;1.30;1.10;;;23.30;56.80;;;;;;5027559;28;20200;-48
2021/07/05 02:29:04;;;;;;;1.30;1.20;;;23.30;57.20;;;;;;5034815;28;20201;-49
2021/07/05 02:31:29;;;;;;;1.20;1.10;;;23.50;57.10;;;;;;5031460;28;20255;-50
2021/07/05 02:33:55;;;;;;;1.07;1.07;;;23.70;57.50;;;;;;5027947;28;20197;-48
2021/07/05 02:36:21;;;;;;;1.27;1.17;;;23.60;56.30;;;;;;5025144;28;20228;-48
2021/07/05 02:38:47;;;;;;;1.20;1.10;;;23.50;56.50;;;;;;5030717;28;20207;-49
2021/07/05 02:41:13;;;;;;;1.17;1.10;;;23.60;56.50;;;;;;5019305;28;20232;-50
2021/07/05 02:43:39;;;;;;;2.77;1.20;;;23.70;56.90;;;;;;5022813;28;20950;-45
2021/07/05 02:46:05;;;;;;;2.50;1.10;;;23.40;56.30;;;;;;5027282;28;20201;-49
2021/07/05 02:48:32;;;;;;;2.97;1.13;;;23.30;56.30;;;;;;5030494;28;20559;-49
2021/07/05 02:51:04;;;;;;;2.20;1.20;;;23.20;57.50;;;;;;5027084;28;20193;-48
2021/07/05 02:53:30;;;;;;;1.13;0.93;;;23.30;56.50;;;;;;5022886;28;20935;-49
2021/07/05 02:55:56;;;;;;;1.40;1.30;;;23.30;57.00;;;;;;5028268;28;20811;-49
2021/07/05 02:58:22;;;;;;;3.03;1.30;;;23.20;57.40;;;;;;5022186;28;20448;-50
2021/07/05 03:00:51;;;;;;;1.20;1.10;;;23.40;57.40;;;;;;5029530;28;20232;-48
2021/07/05 03:03:17;;;;;;;2.73;1.13;;;23.60;57.30;;;;;;5026300;28;20712;-49
2021/07/05 03:05:43;;;;;;;2.57;1.10;;;23.70;56.60;;;;;;5031165;28;20451;-50
2021/07/05 03:08:08;;;;;;;3.50;1.40;;;23.80;56.10;;;;;;5028385;28;20196;-48
2021/07/05 03:10:36;;;;;;;2.10;1.17;;;23.90;55.80;;;;;;5032195;28;20812;-47
2021/07/05 03:13:04;;;;;;;3.27;1.37;;;23.60;55.50;;;;;;5024053;28;20189;-49
2021/07/05 03:15:30;;;;;;;1.23;1.13;;;23.50;56.60;;;;;;5019992;28;20436;-50
2021/07/05 03:17:56;;;;;;;2.07;1.30;;;23.50;56.50;;;;;;5026731;28;20730;-48
2021/07/05 03:20:25;;;;;;;1.90;1.27;;;23.50;56.70;;;;;;5021953;28;20688;-47
2021/07/05 03:22:52;;;;;;;1.70;1.20;;;23.70;56.50;;;;;;5019891;28;20483;-48
2021/07/05 03:25:21;;;;;;;1.47;1.10;;;23.90;56.40;;;;;;5028475;28;20436;-49
2021/07/05 03:27:47;;;;;;;2.50;1.30;;;24.00;56.20;;;;;;5028521;28;20439;-48
2021/07/05 03:30:14;;;;;;;2.53;1.40;;;24.10;55.80;;;;;;5026919;28;20455;-45
2021/07/05 03:32:40;;;;;;;2.00;1.70;;;24.20;55.40;;;;;;5022057;28;20479;-49
2021/07/05 03:35:08;;;;;;;1.20;1.10;;;24.30;55.40;;;;;;5022306;28;20790;-49
2021/07/05 03:37:34;;;;;;;3.50;1.20;;;24.40;55.10;;;;;;5018118;28;20957;-50
2021/07/05 03:39:59;;;;;;;0.90;0.90;;;24.40;54.60;;;;;;5029542;28;20440;-48
2021/07/05 03:42:25;;;;;;;1.23;0.97;;;24.20;54.80;;;;;;5028031;28;20197;-49
2021/07/05 03:44:50;;;;;;;2.53;1.30;;;24.20;55.20;;;;;;5028346;28;20205;-49
2021/07/05 03:47:16;;;;;;;4.73;2.10;;;24.30;55.50;;;;;;5028460;28;20798;-49
2021/07/05 03:49:41;;;;;;;8.07;1.33;;;24.40;54.90;;;;;;5027969;28;20193;-50
2021/07/05 03:52:07;;;;;;;2.83;1.20;;;24.50;55.20;;;;;;5027658;28;20272;-50
2021/07/05 03:54:33;;;;;;;1.00;0.90;;;24.40;55.00;;;;;;5027727;28;20216;-49
2021/07/05 03:56:59;;;;;;;3.30;1.17;;;24.10;54.80;;;;;;5025943;28;20196;-49
2021/07/05 03:59:25;;;;;;;1.80;1.27;;;24.10;55.60;;;;;;5024297;28;20228;-49
2021/07/05 04:01:51;;;;;;;1.97;1.00;;;24.10;55.40;;;;;;5029618;28;20232;-47
2021/07/05 04:04:16;;;;;;;1.27;1.20;;;24.30;55.60;;;;;;5028023;28;20459;-50
2021/07/05 04:06:42;;;;;;;1.80;1.10;;;24.40;55.30;;;;;;5020719;28;20232;-50
2021/07/05 04:09:08;;;;;;;1.60;1.00;;;24.50;55.40;;;;;;5022076;28;20564;-50
2021/07/05 04:11:34;;;;;;;1.57;1.23;;;24.50;54.80;;;;;;5025900;28;20243;-49
2021/07/05 04:13:59;;;;;;;3.47;1.20;;;24.50;54.80;;;;;;5019570;28;20846;-50
2021/07/05 04:16:25;;;;;;;1.30;1.17;;;24.50;54.90;;;;;;5028172;28;20312;-49
2021/07/05 04:18:51;;;;;;;1.90;1.30;;;24.60;54.50;;;;;;5025067;28;20204;-50
2021/07/05 04:21:20;;;;;;;1.83;1.50;;;24.60;54.30;;;;;;5024896;28;20972;-49
2021/07/05 04:23:46;;;;;;;1.20;1.10;;;24.60;54.60;;;;;;5028479;28;20232;-50
2021/07/05 04:26:12;;;;;;;1.27;1.17;;;24.50;53.80;;;;;;5027745;28;20451;-48
2021/07/05 04:28:38;;;;;;;1.37;1.20;;;24.20;54.90;;;;;;5023378;28;20444;-49
2021/07/05 04:31:03;;;;;;;1.83;1.33;;;24.20;54.70;;;;;;5027668;28;20201;-46
2021/07/05 04:33:29;;;;;;;1.57;1.37;;;24.30;55.00;;;;;;5022059;28;20272;-49
2021/07/05 04:35:55;;;;;;;1.40;1.30;;;24.40;55.00;;;;;;5026149;28;20229;-50
2021/07/05 04:38:20;;;;;;;1.40;1.30;;;24.40;55.10;;;;;;5026513;28;20197;-49
2021/07/05 04:40:47;;;;;;;2.63;1.43;;;24.40;55.00;;;;;;5029941;28;21009;-50
2021/07/05 04:43:12;;;;;;;2.73;1.00;;;24.40;55.70;;;;;;5026949;28;20727;-50
2021/07/05 04:45:38;;;;;;;1.20;1.10;;;24.40;55.80;;;;;;5025756;28;20432;-49
2021/07/05 04:48:06;;;;;;;1.90;1.30;;;24.50;55.50;;;;;;5028895;28;20202;-49
2021/07/05 04:50:32;;;;;;;2.60;1.30;;;24.50;55.70;;;;;;5025310;28;20505;-45
2021/07/05 04:52:59;;;;;;;1.57;1.40;;;24.30;55.50;;;;;;5026798;28;20471;-46
2021/07/05 04:55:26;;;;;;;1.50;1.40;;;24.30;55.30;;;;;;5021541;28;20531;-46
2021/07/05 04:57:52;;;;;;;2.57;1.30;;;24.30;55.50;;;;;;5023863;28;20435;-46
2021/07/05 05:00:24;;;;;;;2.90;1.20;;;24.00;55.70;;;;;;5023294;28;20460;-45
2021/07/05 05:02:52;;;;;;;2.20;1.33;;;23.90;55.80;;;;;;5030040;28;20467;-49
2021/07/05 05:05:17;;;;;;;1.60;0.90;;;23.90;56.40;;;;;;5020640;28;20958;-46
2021/07/05 05:07:43;;;;;;;1.50;1.40;;;24.00;55.70;;;;;;5031941;28;20444;-44
2021/07/05 05:10:12;;;;;;;3.00;1.40;;;24.10;55.60;;;;;;5017682;28;20213;-44
2021/07/05 05:12:38;;;;;;;3.07;1.47;;;24.00;55.10;;;;;;5027722;28;20602;-47
2021/07/05 05:15:08;;;;;;;6.97;1.60;;;24.10;55.80;;;;;;5023912;28;20535;-44
2021/07/05 05:17:34;;;;;;;3.80;1.33;;;24.00;56.10;;;;;;5027364;28;20311;-45
2021/07/05 05:20:00;;;;;;;1.13;1.10;;;23.80;55.50;;;;;;5021052;28;20536;-49
2021/07/05 05:22:26;;;;;;;3.07;1.43;;;23.80;55.90;;;;;;5030193;28;20939;-45
2021/07/05 05:24:51;;;;;;;1.70;1.60;;;23.80;56.10;;;;;;5027687;28;20522;-45
2021/07/05 05:27:17;;;;;;;3.00;1.40;;;23.70;55.10;;;;;;5018249;28;20198;-47
2021/07/05 05:29:43;;;;;;;1.50;1.40;;;23.50;55.90;;;;;;5016840;28;20212;-45
2021/07/05 05:32:09;;;;;;;3.00;1.50;;;23.40;55.60;;;;;;5019566;28;20669;-46
2021/07/05 05:34:35;;;;;;;1.33;1.23;;;23.50;56.00;;;;;;5024136;28;20198;-45
2021/07/05 05:37:01;;;;;;;1.93;1.30;;;23.70;55.90;;;;;;5024782;28;20205;-45
2021/07/05 05:39:27;;;;;;;2.03;1.20;;;23.90;55.40;;;;;;5017301;28;20198;-45
2021/07/05 05:41:52;;;;;;;1.67;1.30;;;24.00;55.10;;;;;;5023831;28;20484;-45
2021/07/05 05:44:18;;;;;;;2.07;1.50;;;24.10;54.70;;;;;;5021631;28;20248;-45
2021/07/05 05:46:44;;;;;;;1.43;1.33;;;24.20;54.70;;;;;;5018841;28;20193;-45
2021/07/05 05:49:09;;;;;;;3.00;1.77;;;24.30;54.60;;;;;;5028651;28;20281;-45
2021/07/05 05:51:36;;;;;;;1.47;1.17;;;24.40;54.50;;;;;;5018163;28;20190;-45
2021/07/05 05:54:03;;;;;;;1.67;1.30;;;24.50;54.20;;;;;;5022684;28;20201;-45
2021/07/05 05:56:32;;;;;;;3.03;1.30;;;24.30;54.00;;;;;;5018193;28;20428;-44
2021/07/05 05:59:01;;;;;;;2.20;1.33;;;24.20;54.60;;;;;;5021762;28;20460;-45
2021/07/05 06:01:28;;;;;;;1.90;1.40;;;23.80;55.80;;;;;;5029107;28;20514;-44
2021/07/05 06:03:54;;;;;;;1.63;1.40;;;23.60;56.80;;;;;;5024061;28;20452;-44
2021/07/05 06:06:19;;;;;;;2.73;1.60;;;23.70;56.40;;;;;;5025763;28;20442;-46
2021/07/05 06:08:45;;;;;;;1.30;1.20;;;23.90;56.10;;;;;;5022635;28;20201;-44
2021/07/05 06:11:11;;;;;;;1.53;1.30;;;23.70;55.80;;;;;;5018412;28;20702;-47
2021/07/05 06:13:37;;;;;;;2.07;1.37;;;23.50;56.80;;;;;;5018290;28;20280;-45
2021/07/05 06:16:02;;;;;;;2.00;1.47;;;23.50;57.20;;;;;;5019623;28;20272;-45
2021/07/05 06:18:28;;;;;;;1.47;1.30;;;23.40;57.40;;;;;;5023546;28;20606;-46
2021/07/05 06:20:54;;;;;;;2.43;1.70;;;23.50;57.30;;;;;;5026566;28;20787;-44
2021/07/05 06:23:24;;;;;;;1.40;1.30;;;23.70;57.00;;;;;;5027654;28;20196;-44
2021/07/05 06:25:50;;;;;;;1.40;1.30;;;23.80;56.80;;;;;;5021265;28;20224;-45
2021/07/05 06:28:17;;;;;;;2.17;1.60;;;23.70;56.80;;;;;;5014408;28;20460;-45
2021/07/05 06:30:43;;;;;;;1.80;1.70;;;23.80;57.00;;;;;;5022828;28;20575;-46
2021/07/05 06:33:08;;;;;;;3.10;1.70;;;23.70;57.20;;;;;;5026610;28;20436;-44
2021/07/05 06:35:34;;;;;;;2.80;1.60;;;23.70;57.40;;;;;;5019790;28;20440;-46
2021/07/05 06:38:00;;;;;;;3.23;1.60;;;23.60;57.80;;;;;;5027129;28;20928;-46
2021/07/05 06:40:26;;;;;;;1.67;1.50;;;23.60;57.90;;;;;;5030602;28;20213;-47
2021/07/05 06:42:52;;;;;;;1.90;1.70;;;23.50;58.40;;;;;;5020198;28;20668;-44
2021/07/05 06:45:17;;;;;;;2.23;1.83;;;23.50;58.90;;;;;;5020375;28;20205;-44
2021/07/05 06:47:43;;;;;;;2.50;1.90;;;23.60;58.60;;;;;;5030780;28;20424;-46
2021/07/05 06:50:09;;;;;;;2.23;1.40;;;23.70;58.50;;;;;;5030002;28;20558;-46
2021/07/05 06:52:35;;;;;;;2.80;1.80;;;23.70;58.50;;;;;;5019664;28;20193;-45
2021/07/05 06:55:05;;;;;;;2.87;1.60;;;23.90;58.60;;;;;;5027996;28;20436;-44
2021/07/05 06:57:32;;;;;;;2.40;1.70;;;23.90;58.50;;;;;;5029308;28;20197;-45
2021/07/05 06:59:59;;;;;;;3.73;1.73;;;24.00;58.50;;;;;;5017143;28;20851;-45
2021/07/05 07:02:26;;;;;;;2.40;1.63;;;24.00;58.50;;;;;;5031260;28;20869;-45
2021/07/05 07:04:51;;;;;;;2.07;1.37;;;24.00;58.50;;;;;;5033823;28;20563;-45
2021/07/05 07:07:17;;;;;;;2.40;1.40;;;24.10;58.20;;;;;;5028482;28;21004;-45
2021/07/05 07:09:43;;;;;;;4.20;1.40;;;23.90;58.60;;;;;;5021208;28;20193;-45
2021/07/05 07:12:09;;;;;;;1.30;1.20;;;23.90;58.60;;;;;;5029897;28;20251;-44
2021/07/05 07:14:35;;;;;;;1.90;1.60;;;24.00;58.60;;;;;;5024024;28;20436;-46
2021/07/05 07:17:45;;;;;;;1.40;1.30;;;24.10;58.60;;;;;;5024856;28;20237;-44
2021/07/05 07:19:49;;;;;;;1.30;1.20;;;24.10;58.80;;;;;;5034432;28;20205;-44
2021/07/05 07:22:15;;;;;;;1.50;1.23;;;24.00;58.00;;;;;;5029076;28;20533;-45
2021/07/05 07:24:40;;;;;;;1.60;1.50;;;24.10;57.90;;;;;;5033129;28;20189;-46
2021/07/05 07:27:06;;;;;;;4.57;1.50;;;24.10;58.00;;;;;;5026043;28;20280;-45
2021/07/05 07:29:31;;;;;;;1.83;1.70;;;24.20;58.70;;;;;;5020883;28;20194;-46
2021/07/05 07:31:57;;;;;;;2.40;1.30;;;24.30;59.00;;;;;;5024918;28;20197;-49
2021/07/05 07:34:23;;;;;;;1.67;1.57;;;24.30;58.80;;;;;;5026014;28;20216;-45
2021/07/05 07:36:49;;;;;;;4.90;1.40;;;24.40;59.00;;;;;;5022641;28;20194;-47
2021/07/05 07:39:23;;;;;;;2.10;1.53;;;24.30;58.30;;;;;;5029401;28;20193;-48
2021/07/05 07:41:49;;;;;;;2.07;1.30;;;24.40;58.30;;;;;;5030301;28;20485;-49
2021/07/05 07:44:14;;;;;;;1.40;1.30;;;24.50;58.50;;;;;;5030204;28;20436;-45
2021/07/05 07:46:40;;;;;;;2.20;1.50;;;24.60;58.90;;;;;;5032079;28;20197;-48
2021/07/05 07:49:06;;;;;;;2.87;1.70;;;24.70;58.90;;;;;;5030777;28;20212;-45
2021/07/05 07:51:31;;;;;;;3.47;1.43;;;24.60;59.70;;;;;;5027577;28;20185;-46
2021/07/05 07:53:58;;;;;;;3.20;1.73;;;24.60;58.80;;;;;;5032319;28;20224;-46
2021/07/05 07:56:24;;;;;;;2.03;1.60;;;24.50;59.00;;;;;;5022241;28;20209;-45
2021/07/05 07:58:50;;;;;;;1.60;1.43;;;24.50;58.90;;;;;;5029311;28;20436;-46
2021/07/05 08:01:15;;;;;;;1.37;1.30;;;24.60;58.60;;;;;;5032468;28;20232;-47
2021/07/05 08:03:41;;;;;;;2.23;1.60;;;24.60;58.90;;;;;;5030160;28;20193;-46
2021/07/05 08:06:06;;;;;;;1.23;1.10;;;24.70;59.10;;;;;;5024811;28;20226;-45
2021/07/05 08:08:32;;;;;;;1.53;1.43;;;24.80;58.70;;;;;;5015762;28;20210;-47
2021/07/05 08:10:58;;;;;;;1.60;1.50;;;24.80;58.60;;;;;;5031385;28;20310;-49
2021/07/05 08:13:23;;;;;;;1.30;1.20;;;24.80;58.60;;;;;;5020098;28;20198;-47
2021/07/05 08:15:52;;;;;;;3.23;1.67;;;24.70;58.60;;;;;;5028893;28;20268;-52
2021/07/05 08:18:17;;;;;;;2.30;1.53;;;24.70;59.10;;;;;;5026052;28;20664;-50
2021/07/05 08:20:43;;;;;;;4.10;1.20;;;24.70;57.70;;;;;;5026888;28;20520;-46
2021/07/05 08:23:08;;;;;;;2.07;1.50;;;24.50;57.30;;;;;;5028282;28;20202;-50
2021/07/05 08:25:34;;;;;;;2.97;1.30;;;24.50;57.90;;;;;;5026676;28;20201;-48
2021/07/05 08:28:00;;;;;;;1.37;1.27;;;24.60;58.00;;;;;;5023204;28;20198;-48
2021/07/05 08:30:26;;;;;;;1.70;1.23;;;24.40;57.80;;;;;;5030368;28;20212;-49
2021/07/05 08:32:53;;;;;;;1.27;1.17;;;24.50;57.50;;;;;;5028656;28;20205;-46
2021/07/05 08:35:20;;;;;;;2.17;1.97;;;24.50;57.50;;;;;;5018954;28;20944;-47
2021/07/05 08:37:46;;;;;;;1.50;1.40;;;24.60;57.40;;;;;;5024640;28;20491;-50
2021/07/05 08:40:13;;;;;;;1.40;1.30;;;24.70;57.90;;;;;;5031176;28;20878;-47
2021/07/05 08:42:39;;;;;;;5.40;1.50;;;24.70;58.20;;;;;;5019480;28;20433;-50
2021/07/05 08:45:07;;;;;;;1.53;1.43;;;24.70;58.50;;;;;;5029856;28;20478;-48
2021/07/05 08:47:36;;;;;;;1.93;1.30;;;24.70;58.60;;;;;;5020633;28;20445;-49
2021/07/05 08:50:04;;;;;;;2.80;1.60;;;24.60;57.90;;;;;;5029188;28;20487;-46
2021/07/05 08:52:38;;;;;;;2.67;1.33;;;24.40;57.70;;;;;;5026343;28;20960;-48
2021/07/05 08:55:04;;;;;;;1.40;1.23;;;24.30;58.00;;;;;;5025957;28;20442;-48
2021/07/05 08:57:47;;;;;;;2.10;1.20;;;24.20;58.80;;;;;;5021460;28;20919;-50
2021/07/05 09:00:19;;;;;;;1.70;1.60;;;24.30;58.50;;;;;;5012916;28;20433;-50
2021/07/05 09:02:45;;;;;;;1.33;1.23;;;24.40;58.40;;;;;;5021053;28;20797;-47
2021/07/05 09:05:11;;;;;;;2.40;1.50;;;24.50;58.70;;;;;;5027334;28;20444;-50
2021/07/05 09:08:03;;;;;;;1.50;1.20;;;24.50;58.70;;;;;;5026039;28;20463;-47
2021/07/05 09:10:42;;;;;;;1.90;1.50;;;24.60;58.90;;;;;;5020586;28;20472;-48
2021/07/05 09:13:18;;;;;;;2.50;1.57;;;24.70;58.30;;;;;;5027352;28;20428;-45
2021/07/05 09:15:47;;;;;;;4.10;1.30;;;24.80;58.60;;;;;;5020757;28;20831;-47
2021/07/05 09:18:23;;;;;;;1.50;1.33;;;24.80;58.40;;;;;;5022536;28;20448;-48
2021/07/05 09:20:49;;;;;;;2.77;1.57;;;24.80;58.60;;;;;;5024646;28;20566;-48
2021/07/05 09:23:15;;;;;;;1.30;1.20;;;24.80;58.70;;;;;;5017020;28;20895;-48
2021/07/05 09:25:47;;;;;;;1.87;1.40;;;24.90;58.60;;;;;;5022046;28;20198;-48
2021/07/05 09:28:14;;;;;;;1.73;1.30;;;24.90;58.80;;;;;;5021476;28;20447;-47
2021/07/05 09:30:42;;;;;;;2.27;1.40;;;24.90;59.10;;;;;;5023645;28;20448;-45
2021/07/05 09:33:26;;;;;;;1.90;1.80;;;25.00;59.30;;;;;;5024119;28;20481;-47
2021/07/05 09:35:57;;;;;;;1.30;1.20;;;24.80;59.60;;;;;;5021354;28;20482;-46
2021/07/05 09:38:39;;;;;;;1.73;1.00;;;24.70;59.30;;;;;;5019623;28;20459;-47
2021/07/05 09:41:24;;;;;;;0.93;0.93;;;24.50;58.60;;;;;;5018611;28;20534;-46
2021/07/05 09:43:55;;;;;;;1.93;1.20;;;24.50;56.30;;;;;;5026093;28;20514;-48
2021/07/05 09:46:50;;;;;;;1.30;0.90;;;24.60;57.20;;;;;;5027272;28;20530;-47
2021/07/05 09:49:26;;;;;;;1.27;1.13;;;24.70;58.10;;;;;;5019566;28;20455;-47
2021/07/05 09:52:12;;;;;;;0.83;0.80;;;24.80;57.30;;;;;;5018989;28;20486;-46
2021/07/05 09:54:41;;;;;;;0.93;0.90;;;24.80;57.80;;;;;;5022414;28;20468;-45
2021/07/05 09:57:25;;;;;;;1.07;0.90;;;24.90;58.00;;;;;;5016862;28;20468;-48
2021/07/05 09:59:56;;;;;;;1.03;1.03;;;24.90;58.30;;;;;;5020253;28;20448;-46
2021/07/05 10:02:21;;;;;;;1.20;1.10;;;24.90;59.00;;;;;;5021318;28;20475;-46
2021/07/05 10:04:48;;;;;;;1.17;1.07;;;25.00;59.20;;;;;;5022992;28;20443;-46
2021/07/05 10:07:15;;;;;;;1.30;1.10;;;24.90;59.00;;;;;;5018473;28;20194;-46
2021/07/05 10:09:47;;;;;;;1.10;1.00;;;24.80;58.50;;;;;;5023224;28;20448;-47
2021/07/05 10:12:26;;;;;;;1.27;1.07;;;24.70;59.40;;;;;;5021446;28;20508;-46
2021/07/05 10:14:59;;;;;;;1.90;1.23;;;24.70;59.50;;;;;;5023039;28;21337;-46
2021/07/05 10:17:27;;;;;;;4.07;1.40;;;24.70;59.80;;;;;;5023294;28;20534;-47
2021/07/05 10:19:54;;;;;;;1.80;1.70;;;24.70;60.60;;;;;;5014286;28;20445;-45
2021/07/05 10:22:20;;;;;;;2.93;1.20;;;24.70;60.70;;;;;;5030282;28;20546;-46
2021/07/05 10:24:47;;;;;;;1.53;1.43;;;24.30;62.50;;;;;;5019419;28;20433;-48
2021/07/05 10:27:13;;;;;;;7.73;1.50;;;23.80;63.60;;;;;;5015029;28;20437;-47
2021/07/05 10:29:40;;;;;;;1.97;1.17;;;23.80;64.30;;;;;;5016571;28;20439;-45
2021/07/05 10:32:06;;;;;;;1.33;1.23;;;23.90;64.20;;;;;;5017729;28;20940;-45
2021/07/05 10:34:32;;;;;;;1.20;1.10;;;23.90;64.60;;;;;;5015917;28;20443;-49
2021/07/05 10:36:58;;;;;;;2.50;1.60;;;23.90;64.90;;;;;;5027924;28;20586;-46
2021/07/05 10:39:26;;;;;;;2.20;1.10;;;24.00;64.80;;;;;;5026030;28;20437;-46
2021/07/05 10:41:52;;;;;;;2.20;1.27;;;24.00;64.70;;;;;;5028375;28;20500;-46
2021/07/05 10:44:20;;;;;;;1.17;1.17;;;24.00;64.40;;;;;;5030333;28;20437;-49
2021/07/05 10:46:55;;;;;;;2.23;1.33;;;24.10;64.40;;;;;;5030793;28;20196;-46
2021/07/05 10:49:30;;;;;;;1.10;1.00;;;24.30;63.40;;;;;;5026074;28;20467;-48
2021/07/05 10:52:08;;;;;;;3.70;1.17;;;24.50;62.90;;;;;;5017887;28;20436;-47
2021/07/05 10:54:53;;;;;;;4.00;1.50;;;24.60;62.50;;;;;;5028358;28;20450;-46
2021/07/05 10:57:22;;;;;;;1.47;1.37;;;24.80;62.30;;;;;;5027461;28;20466;-48
2021/07/05 10:59:50;;;;;;;1.30;1.20;;;24.70;61.90;;;;;;5019493;28;20459;-46
2021/07/05 11:02:39;;;;;;;3.00;1.40;;;24.80;62.20;;;;;;5029846;28;20483;-46
2021/07/05 11:05:43;;;;;;;3.33;1.50;;;24.80;62.00;;;;;;5027246;28;20448;-50
2021/07/05 11:08:25;;;;;;;1.27;0.97;;;24.90;61.40;;;;;;5027444;28;20467;-50
2021/07/05 11:11:16;;;;;;;1.13;1.03;;;24.90;61.50;;;;;;5032121;28;20458;-48
2021/07/05 11:13:43;;;;;;;1.83;1.13;;;25.10;61.10;;;;;;5029766;28;20476;-47
2021/07/05 11:16:09;;;;;;;1.97;1.10;;;25.10;60.50;;;;;;5026144;28;20483;-46
2021/07/05 11:18:45;;;;;;;1.63;1.23;;;25.10;60.20;;;;;;5025243;28;20436;-46
2021/07/05 11:21:53;;;;;;;3.50;1.17;;;25.20;60.00;;;;;;5018951;28;20510;-48
2021/07/05 11:24:19;;;;;;;1.40;1.30;;;25.20;60.00;;;;;;5021723;28;20436;-47
2021/07/05 11:26:47;;;;;;;1.30;1.20;;;25.30;59.70;;;;;;5025362;28;20951;-47
2021/07/05 11:29:15;;;;;;;1.43;1.23;;;25.40;59.40;;;;;;5023981;28;21129;-46
2021/07/05 11:32:02;;;;;;;1.33;1.23;;;25.20;60.30;;;;;;5022008;28;20437;-48
2021/07/05 11:34:31;;;;;;;1.20;1.10;;;25.20;60.10;;;;;;5021305;28;20531;-48
2021/07/05 11:37:16;;;;;;;4.47;1.40;;;25.40;60.00;;;;;;5025416;28;20796;-50
2021/07/05 11:39:46;;;;;;;1.80;1.20;;;25.40;59.90;;;;;;5033232;28;20444;-45
2021/07/05 11:42:20;;;;;;;1.30;1.20;;;25.50;59.70;;;;;;5025514;28;20967;-49
2021/07/05 11:44:51;;;;;;;1.33;1.20;;;25.50;59.70;;;;;;5030889;28;20449;-47
2021/07/05 11:47:39;;;;;;;1.50;1.33;;;25.50;59.80;;;;;;5030568;28;21262;-46
2021/07/05 11:50:14;;;;;;;1.47;1.13;;;25.50;59.70;;;;;;5032974;28;20447;-46
2021/07/05 11:52:50;;;;;;;1.50;1.37;;;25.50;59.60;;;;;;5020748;28;20974;-48
2021/07/05 11:55:18;;;;;;;1.83;1.37;;;25.50;59.60;;;;;;5022247;28;20856;-49
2021/07/05 11:57:51;;;;;;;1.63;1.40;;;25.50;59.80;;;;;;5025316;28;20439;-48
2021/07/05 12:00:21;;;;;;;1.43;1.33;;;25.60;59.60;;;;;;5027822;28;20519;-46
2021/07/05 12:02:46;;;;;;;1.97;1.30;;;25.40;59.50;;;;;;5029973;28;20479;-48
2021/07/05 12:05:12;;;;;;;1.13;1.13;;;25.40;59.70;;;;;;5027809;28;21376;-46
2021/07/05 12:07:38;;;;;;;5.77;1.60;;;25.40;59.70;;;;;;5032912;28;20189;-46
2021/07/05 12:10:15;;;;;;;1.40;1.30;;;25.50;59.40;;;;;;5027647;28;20942;-46
2021/07/05 12:12:40;;;;;;;3.20;1.50;;;25.60;59.30;;;;;;5023911;28;20224;-46
2021/07/05 12:15:06;;;;;;;2.60;1.50;;;25.60;59.60;;;;;;5041640;28;20932;-46
2021/07/05 12:17:32;;;;;;;2.60;1.20;;;25.60;59.50;;;;;;5024477;28;20240;-45
2021/07/05 12:19:57;;;;;;;1.73;1.63;;;25.40;61.50;;;;;;5032443;28;20537;-47
2021/07/05 12:22:26;;;;;;;3.70;1.60;;;25.30;60.90;;;;;;5023893;28;20236;-47
2021/07/05 12:24:56;;;;;;;2.70;1.73;;;25.00;62.80;;;;;;5023170;28;20280;-46
2021/07/05 12:27:28;;;;;;;1.73;1.53;;;24.80;63.40;;;;;;5030825;28;20444;-47
2021/07/05 12:29:58;;;;;;;1.90;1.70;;;24.70;63.40;;;;;;5025596;28;21342;-49
2021/07/05 12:32:38;;;;;;;2.00;1.90;;;24.20;65.10;;;;;;5024938;28;20440;-46
2021/07/05 12:35:11;;;;;;;1.50;1.40;;;24.30;65.30;;;;;;5018679;28;20428;-46
2021/07/05 12:37:47;;;;;;;2.43;2.00;;;24.40;65.20;;;;;;5019991;28;20480;-51
2021/07/05 12:40:22;;;;;;;1.57;1.47;;;24.50;64.50;;;;;;5021179;28;20959;-47
2021/07/05 12:42:57;;;;;;;1.37;1.27;;;24.30;63.90;;;;;;5019724;28;20959;-46
2021/07/05 12:45:35;;;;;;;3.20;1.50;;;24.50;63.50;;;;;;5017663;28;20444;-48
2021/07/05 12:48:17;;;;;;;2.50;1.70;;;24.90;62.60;;;;;;5019551;28;20986;-46
2021/07/05 12:50:45;;;;;;;1.60;1.20;;;25.10;61.90;;;;;;5015511;28;20444;-46
2021/07/05 12:53:19;;;;;;;1.27;1.20;;;25.40;60.90;;;;;;5017716;28;20516;-50